createdAt,value
2023-04-27T00:01:38.014Z,8.08
2023-04-27T00:04:07.068Z,8.14
2023-04-27T00:06:34.698Z,8.19
2023-04-27T00:09:02.237Z,8.09
2023-04-27T00:11:30.353Z,7.99
2023-04-27T00:13:57.630Z,8.02
2023-04-27T00:16:28.266Z,8.06
2023-04-27T00:18:55.885Z,7.99
2023-04-27T00:21:23.320Z,7.87
2023-04-27T00:23:50.469Z,7.78
2023-04-27T00:26:17.487Z,7.78
2023-04-27T00:28:47.105Z,7.72
2023-04-27T00:31:14.187Z,7.56
2023-04-27T00:33:41.290Z,7.43
2023-04-27T00:36:08.949Z,7.44
2023-04-27T00:38:38.608Z,7.46
2023-04-27T00:41:07.284Z,7.41
2023-04-27T00:43:44.129Z,7.32
2023-04-27T00:46:14.941Z,7.31
2023-04-27T00:48:42.092Z,7.30
2023-04-27T00:51:09.674Z,7.22
2023-04-27T00:53:37.160Z,7.16
2023-04-27T00:56:07.253Z,7.18
2023-04-27T00:58:34.229Z,7.20
2023-04-27T01:01:02.382Z,7.17
2023-04-27T01:03:30.796Z,7.12
2023-04-27T01:06:01.643Z,7.17
2023-04-27T01:08:29.686Z,7.27
2023-04-27T01:10:56.927Z,7.35
2023-04-27T01:13:24.334Z,7.40
2023-04-27T01:15:51.376Z,7.43
2023-04-27T01:18:18.561Z,7.51
2023-04-27T01:20:45.847Z,7.55
2023-04-27T01:23:17.525Z,7.55
2023-04-27T01:25:45.250Z,7.53
2023-04-27T01:28:12.788Z,7.52
2023-04-27T01:30:39.857Z,7.53
2023-04-27T01:33:06.942Z,7.54
2023-04-27T01:35:33.796Z,7.54
2023-04-27T01:38:00.770Z,7.56
2023-04-27T01:40:27.991Z,7.56
2023-04-27T01:42:55.247Z,7.66
2023-04-27T01:45:22.318Z,7.72
2023-04-27T01:47:52.471Z,7.63
2023-04-27T01:50:20.589Z,7.49
2023-04-27T01:52:47.955Z,7.42
2023-04-27T01:55:15.095Z,7.49
2023-04-27T01:57:42.393Z,7.52
2023-04-27T02:00:10.605Z,7.43
2023-04-27T02:02:53.836Z,7.37
2023-04-27T02:05:24.441Z,7.37
2023-04-27T02:07:53.017Z,7.45
2023-04-27T02:10:22.242Z,7.46
2023-04-27T02:12:49.875Z,7.35
2023-04-27T02:15:17.470Z,7.20
2023-04-27T02:17:45.725Z,7.09
2023-04-27T02:20:13.068Z,7.09
2023-04-27T02:22:45.989Z,7.08
2023-04-27T02:25:13.209Z,7.08
2023-04-27T02:27:40.926Z,7.07
2023-04-27T02:30:10.566Z,7.18
2023-04-27T02:32:40.632Z,7.25
2023-04-27T02:35:08.572Z,7.20
2023-04-27T02:37:35.932Z,7.10
2023-04-27T02:40:04.409Z,7.04
2023-04-27T02:42:34.059Z,7.05
2023-04-27T02:45:01.449Z,7.01
2023-04-27T02:47:28.468Z,6.94
2023-04-27T02:49:55.510Z,6.92
2023-04-27T02:52:22.996Z,7.01
2023-04-27T02:54:49.951Z,7.05
2023-04-27T02:57:17.090Z,6.92
2023-04-27T02:59:43.985Z,6.76
2023-04-27T03:02:10.989Z,6.69
2023-04-27T03:04:38.564Z,6.74
2023-04-27T03:07:05.712Z,6.72
2023-04-27T03:09:32.859Z,6.64
2023-04-27T03:11:59.912Z,6.57
2023-04-27T03:14:27.265Z,6.66
2023-04-27T03:16:56.260Z,6.76
2023-04-27T03:19:23.651Z,6.73
2023-04-27T03:21:50.761Z,6.66
2023-04-27T03:24:17.842Z,6.68
2023-04-27T03:26:44.957Z,6.66
2023-04-27T03:29:12.181Z,6.58
2023-04-27T03:31:39.602Z,6.53
2023-04-27T03:34:07.540Z,6.56
2023-04-27T03:36:35.403Z,6.56
2023-04-27T03:39:02.665Z,6.48
2023-04-27T03:41:29.725Z,6.41
2023-04-27T03:43:57.596Z,6.45
2023-04-27T03:46:24.716Z,6.53
2023-04-27T03:48:51.973Z,6.49
2023-04-27T03:51:19.421Z,6.46
2023-04-27T03:53:46.940Z,6.48
2023-04-27T03:56:14.109Z,6.62
2023-04-27T03:58:41.088Z,6.67
2023-04-27T04:01:19.252Z,6.64
2023-04-27T04:03:48.100Z,6.58
2023-04-27T04:06:15.547Z,6.55
2023-04-27T04:08:42.530Z,6.63
2023-04-27T04:11:10.078Z,6.73
2023-04-27T04:13:37.435Z,6.72
2023-04-27T04:16:09.179Z,6.65
2023-04-27T04:18:36.653Z,6.67
2023-04-27T04:21:04.024Z,6.80
2023-04-27T04:23:33.132Z,6.89
2023-04-27T04:26:02.505Z,6.90
2023-04-27T04:28:33.950Z,6.84
2023-04-27T04:31:01.734Z,6.84
2023-04-27T04:33:28.848Z,6.91
2023-04-27T04:35:55.883Z,7.00
2023-04-27T04:38:23.902Z,7.01
2023-04-27T04:40:53.058Z,7.02
2023-04-27T04:43:20.165Z,7.06
2023-04-27T04:45:47.731Z,7.19
2023-04-27T04:48:16.742Z,7.32
2023-04-27T04:50:45.386Z,7.34
2023-04-27T04:53:13.031Z,7.31
2023-04-27T04:55:41.183Z,7.27
2023-04-27T04:58:08.404Z,7.24
2023-04-27T05:00:35.653Z,7.23
2023-04-27T05:03:02.839Z,7.17
2023-04-27T05:05:30.227Z,7.10
2023-04-27T05:07:57.381Z,7.10
2023-04-27T05:10:24.360Z,7.17
2023-04-27T05:12:51.352Z,7.19
2023-04-27T05:15:18.272Z,7.10
2023-04-27T05:17:45.281Z,7.05
2023-04-27T05:20:12.296Z,6.99
2023-04-27T05:22:39.126Z,7.04
2023-04-27T05:25:06.694Z,7.03
2023-04-27T05:27:33.730Z,6.94
2023-04-27T05:30:00.873Z,6.87
2023-04-27T05:32:27.773Z,6.83
2023-04-27T05:34:55.185Z,6.89
2023-04-27T05:37:22.572Z,6.94
2023-04-27T05:39:49.528Z,6.90
2023-04-27T05:42:16.562Z,6.83
2023-04-27T05:44:43.936Z,6.84
2023-04-27T05:47:11.018Z,6.96
2023-04-27T05:49:38.033Z,7.08
2023-04-27T05:52:04.929Z,7.11
2023-04-27T05:54:31.877Z,7.10
2023-04-27T05:56:58.958Z,7.06
2023-04-27T05:59:27.330Z,7.05
2023-04-27T06:01:54.295Z,7.11
2023-04-27T06:04:21.629Z,7.17
2023-04-27T06:06:48.704Z,7.16
2023-04-27T06:09:15.812Z,7.14
2023-04-27T06:11:43.763Z,7.12
2023-04-27T06:14:10.786Z,7.15
2023-04-27T06:16:37.676Z,7.28
2023-04-27T06:19:04.601Z,7.36
2023-04-27T06:21:33.757Z,7.35
2023-04-27T06:24:01.260Z,7.32
2023-04-27T06:26:28.357Z,7.31
2023-04-27T06:28:56.259Z,7.40
2023-04-27T06:31:23.276Z,7.51
2023-04-27T06:33:50.354Z,7.54
2023-04-27T06:36:17.297Z,7.50
2023-04-27T06:41:14.699Z,7.45
2023-04-27T06:43:41.541Z,7.46
2023-04-27T06:46:08.460Z,7.44
2023-04-27T06:48:35.508Z,7.42
2023-04-27T06:51:02.350Z,7.40
2023-04-27T06:53:29.195Z,7.49
2023-04-27T06:55:56.221Z,7.58
2023-04-27T06:58:23.341Z,7.55
2023-04-27T07:00:50.919Z,7.49
2023-04-27T07:03:18.089Z,7.51
2023-04-27T07:05:45.119Z,7.63
2023-04-27T07:08:12.375Z,7.77
2023-04-27T07:10:39.383Z,7.80
2023-04-27T07:13:08.843Z,7.77
2023-04-27T07:15:36.930Z,7.76
2023-04-27T07:18:04.153Z,7.88
2023-04-27T07:20:31.877Z,7.98
2023-04-27T07:22:58.737Z,7.95
2023-04-27T07:25:26.011Z,7.91
2023-04-27T07:27:52.858Z,7.92
2023-04-27T07:30:19.957Z,7.91
2023-04-27T07:32:48.360Z,7.96
2023-04-27T07:35:15.916Z,8.02
2023-04-27T07:37:44.386Z,8.05
2023-04-27T07:40:16.932Z,8.10
2023-04-27T07:42:44.730Z,8.16
2023-04-27T07:45:14.291Z,8.18
2023-04-27T07:47:42.580Z,8.24
2023-04-27T07:50:10.807Z,8.28
2023-04-27T07:52:37.966Z,8.27
2023-04-27T07:55:05.315Z,8.27
2023-04-27T07:57:32.169Z,8.23
2023-04-27T07:59:59.032Z,8.25
2023-04-27T08:02:30.528Z,8.36
2023-04-27T08:04:58.187Z,8.39
2023-04-27T08:07:25.363Z,8.39
2023-04-27T08:09:53.568Z,8.36
2023-04-27T08:12:20.573Z,8.28
2023-04-27T08:14:47.523Z,8.24
2023-04-27T08:17:14.423Z,8.22
2023-04-27T08:19:41.469Z,8.19
2023-04-27T08:22:08.670Z,8.15
2023-04-27T08:24:36.459Z,8.13
2023-04-27T08:27:06.389Z,8.18
2023-04-27T08:29:33.579Z,8.19
2023-04-27T08:32:01.499Z,8.19
2023-04-27T08:34:28.782Z,8.22
2023-04-27T08:36:56.303Z,8.22
2023-04-27T08:39:24.075Z,8.25
2023-04-27T08:41:51.012Z,8.34
2023-04-27T08:44:18.575Z,8.39
2023-04-27T08:46:46.098Z,8.36
2023-04-27T08:49:15.096Z,8.30
2023-04-27T08:51:43.770Z,8.17
2023-04-27T08:54:10.776Z,8.12
2023-04-27T08:56:37.734Z,8.18
2023-04-27T08:59:12.939Z,8.22
2023-04-27T09:01:44.275Z,8.18
2023-04-27T09:04:12.357Z,8.15
2023-04-27T09:06:39.545Z,8.13
2023-04-27T09:09:07.672Z,8.14
2023-04-27T09:11:38.837Z,8.23
2023-04-27T09:14:23.010Z,8.27
2023-04-27T09:17:00.185Z,8.21
2023-04-27T09:19:28.776Z,8.15
2023-04-27T09:22:09.374Z,8.09
2023-04-27T09:24:37.057Z,8.08
2023-04-27T09:27:05.151Z,8.17
2023-04-27T09:29:36.336Z,8.19
2023-04-27T09:32:03.984Z,8.16
2023-04-27T09:34:41.397Z,8.13
2023-04-27T09:37:08.410Z,8.08
2023-04-27T09:39:35.464Z,8.15
2023-04-27T09:42:04.507Z,8.19
2023-04-27T09:44:32.121Z,8.19
2023-04-27T09:47:00.372Z,8.19
2023-04-27T09:49:28.904Z,8.15
2023-04-27T09:51:57.180Z,8.19
2023-04-27T09:54:26.359Z,8.20
2023-04-27T09:57:22.432Z,8.12
2023-04-27T10:00:03.261Z,8.02
2023-04-27T10:02:35.071Z,8.00
2023-04-27T10:05:29.792Z,8.08
2023-04-27T10:07:56.667Z,8.10
2023-04-27T10:10:23.810Z,8.05
2023-04-27T10:13:00.735Z,8.00
2023-04-27T10:15:28.406Z,7.96
2023-04-27T10:17:58.902Z,8.02
2023-04-27T10:20:32.403Z,8.02
2023-04-27T10:23:00.451Z,7.93
2023-04-27T10:25:29.644Z,7.86
2023-04-27T10:28:01.429Z,7.77
2023-04-27T10:30:32.943Z,7.79
2023-04-27T10:33:05.045Z,7.76
2023-04-27T10:35:33.850Z,7.71
2023-04-27T10:38:16.519Z,7.67
2023-04-27T10:41:06.813Z,7.69
2023-04-27T10:43:35.126Z,7.86
2023-04-27T10:46:10.101Z,7.92
2023-04-27T10:48:39.215Z,7.88
2023-04-27T10:51:06.575Z,7.80
2023-04-27T10:53:35.903Z,7.72
2023-04-27T10:56:05.424Z,7.67
2023-04-27T10:58:45.399Z,7.74
2023-04-27T11:01:27.047Z,7.77
2023-04-27T11:04:01.527Z,7.74
2023-04-27T11:06:30.505Z,7.76
2023-04-27T11:08:57.606Z,7.78
2023-04-27T11:11:25.448Z,7.90
2023-04-27T11:13:53.554Z,7.98
2023-04-27T11:16:20.566Z,7.98
2023-04-27T11:18:47.726Z,7.99
2023-04-27T11:21:21.868Z,7.99
2023-04-27T11:23:49.062Z,8.06
2023-04-27T11:26:17.410Z,8.11
2023-04-27T11:28:45.891Z,8.11
2023-04-27T11:31:13.406Z,8.15
2023-04-27T11:33:51.933Z,8.17
2023-04-27T11:36:23.439Z,8.26
2023-04-27T11:38:50.710Z,8.32
2023-04-27T11:41:17.825Z,8.33
2023-04-27T11:43:49.625Z,8.33
2023-04-27T11:46:21.542Z,8.31
2023-04-27T11:48:48.613Z,8.30
2023-04-27T11:51:15.544Z,8.35
2023-04-27T11:53:43.303Z,8.36
2023-04-27T11:56:11.199Z,8.33
2023-04-27T11:58:39.029Z,8.29
2023-04-27T12:01:06.460Z,8.26
2023-04-27T12:03:33.766Z,8.28
2023-04-27T12:06:16.124Z,8.39
2023-04-27T12:08:47.966Z,8.42
2023-04-27T12:11:15.117Z,8.35
2023-04-27T12:13:41.951Z,8.29
2023-04-27T12:16:08.967Z,8.24
2023-04-27T12:18:35.959Z,8.24
2023-04-27T12:21:03.503Z,8.30
2023-04-27T12:23:31.145Z,8.30
2023-04-27T12:25:58.227Z,8.28
2023-04-27T12:28:25.165Z,8.21
2023-04-27T12:30:52.337Z,8.14
2023-04-27T12:33:19.390Z,8.18
2023-04-27T12:35:46.329Z,8.19
2023-04-27T12:38:13.206Z,8.14
2023-04-27T12:40:40.132Z,8.08
2023-04-27T12:43:08.417Z,8.04
2023-04-27T12:45:35.368Z,8.03
2023-04-27T12:48:04.278Z,8.12
2023-04-27T12:50:36.913Z,8.18
2023-04-27T12:53:03.877Z,8.18
2023-04-27T12:55:34.171Z,8.18
2023-04-27T12:58:02.637Z,8.12
2023-04-27T13:00:30.028Z,8.10
2023-04-27T13:02:59.966Z,8.15
2023-04-27T13:05:29.723Z,8.11
2023-04-27T13:07:58.373Z,8.07
2023-04-27T13:10:25.455Z,8.02
2023-04-27T13:12:52.397Z,7.98
2023-04-27T13:15:19.386Z,8.05
2023-04-27T13:17:46.506Z,8.06
2023-04-27T13:20:13.667Z,8.03
2023-04-27T13:22:40.938Z,8.02
2023-04-27T13:25:09.792Z,8.00
2023-04-27T13:27:36.927Z,7.98
2023-04-27T13:30:05.413Z,8.04
2023-04-27T13:32:32.654Z,8.01
2023-04-27T13:34:59.990Z,7.90
2023-04-27T13:37:27.392Z,7.81
2023-04-27T13:39:54.493Z,7.77
2023-04-27T13:42:21.822Z,7.82
2023-04-27T13:44:48.728Z,7.81
2023-04-27T13:47:15.756Z,7.74
2023-04-27T13:49:43.112Z,7.68
2023-04-27T13:52:10.073Z,7.65
2023-04-27T13:54:37.420Z,7.75
2023-04-27T13:57:04.435Z,7.85
2023-04-27T13:59:31.469Z,7.87
2023-04-27T14:01:58.442Z,7.83
2023-04-27T14:04:25.491Z,7.82
2023-04-27T14:06:52.518Z,7.90
2023-04-27T14:09:19.667Z,7.94
2023-04-27T14:11:56.258Z,7.96
2023-04-27T14:14:24.432Z,7.99
2023-04-27T14:16:51.568Z,8.00
2023-04-27T14:19:20.806Z,8.07
2023-04-27T14:21:49.187Z,8.06
2023-04-27T14:24:16.526Z,8.00
2023-04-27T14:26:44.392Z,7.96
2023-04-27T14:29:11.973Z,7.96
2023-04-27T14:31:39.481Z,8.05
2023-04-27T14:34:07.479Z,8.08
2023-04-27T14:36:34.437Z,8.03
2023-04-27T14:39:01.716Z,7.99
2023-04-27T14:41:28.736Z,7.93
2023-04-27T14:43:55.752Z,7.87
2023-04-27T14:46:22.847Z,7.91
2023-04-27T14:48:50.119Z,7.96
2023-04-27T14:51:17.117Z,7.95
2023-04-27T15:06:31.534Z,8.69
2023-04-27T15:08:58.257Z,8.79
2023-04-27T15:11:24.846Z,8.77
2023-04-27T15:13:51.865Z,8.74
2023-04-27T15:16:19.382Z,8.69
2023-04-27T15:18:46.529Z,8.61
2023-04-27T15:21:13.125Z,8.54
2023-04-27T15:23:39.884Z,8.51
2023-04-27T15:26:07.094Z,8.54
2023-04-27T15:28:35.645Z,8.60
2023-04-27T15:31:02.916Z,8.59
2023-04-27T15:33:34.190Z,8.56
2023-04-27T15:36:01.476Z,8.50
2023-04-27T15:38:28.570Z,8.43
2023-04-27T15:40:55.311Z,8.38
2023-04-27T15:43:22.169Z,8.45
2023-04-27T15:45:49.493Z,8.50
2023-04-27T15:48:16.250Z,8.47
2023-04-27T15:50:44.128Z,8.45
2023-04-27T15:53:11.023Z,8.42
2023-04-27T15:55:37.836Z,8.38
2023-04-27T15:58:04.896Z,8.36
2023-04-27T16:00:32.237Z,8.43
2023-04-27T16:02:59.839Z,8.45
2023-04-27T16:05:28.118Z,8.44
2023-04-27T16:07:55.016Z,8.42
2023-04-27T16:10:21.766Z,8.40
2023-04-27T16:12:48.621Z,8.36
2023-04-27T16:15:15.794Z,8.35
2023-04-27T16:17:42.509Z,8.45
2023-04-27T16:20:09.577Z,8.49
2023-04-27T16:22:37.016Z,8.42
2023-04-27T16:25:06.468Z,8.37
2023-04-27T16:27:34.179Z,8.32
2023-04-27T16:30:01.525Z,8.28
2023-04-27T16:32:28.934Z,8.25
2023-04-27T16:34:55.868Z,8.34
2023-04-27T16:37:22.764Z,8.44
2023-04-27T16:39:49.828Z,8.44
2023-04-27T16:42:20.601Z,8.41
2023-04-27T16:44:48.348Z,8.38
2023-04-27T16:47:15.081Z,8.36
2023-04-27T16:49:43.561Z,8.35
2023-04-27T16:52:11.392Z,8.39
2023-04-27T16:54:38.466Z,8.36
2023-04-27T16:57:07.175Z,8.29
2023-04-27T16:59:35.198Z,8.24
2023-04-27T17:02:16.309Z,8.16
2023-04-27T17:04:48.684Z,8.12
2023-04-27T17:07:15.676Z,8.16
2023-04-27T17:09:42.640Z,8.16
2023-04-27T17:12:19.927Z,8.11
2023-04-27T17:14:49.098Z,8.04
2023-04-27T17:17:16.024Z,8.00
2023-04-27T17:19:42.918Z,7.97
2023-04-27T17:22:12.619Z,8.03
2023-04-27T17:24:39.314Z,8.09
2023-04-27T17:27:06.213Z,8.06
2023-04-27T17:29:33.348Z,8.02
2023-04-27T17:32:00.174Z,7.97
2023-04-27T17:34:27.024Z,7.94
2023-04-27T17:36:53.804Z,7.92
2023-04-27T17:39:26.383Z,8.02
2023-04-27T17:41:53.691Z,8.11
2023-04-27T17:44:21.012Z,8.13
2023-04-27T17:46:49.001Z,8.14
2023-04-27T17:49:16.460Z,8.13
2023-04-27T17:51:46.521Z,8.12
2023-04-27T17:54:13.209Z,8.09
2023-04-27T17:56:39.908Z,8.17
2023-04-27T17:59:09.695Z,8.23
2023-04-27T18:01:36.526Z,8.22
2023-04-27T18:04:05.944Z,8.21
2023-04-27T18:06:33.568Z,8.21
2023-04-27T18:09:00.842Z,8.21
2023-04-27T18:11:28.263Z,8.18
2023-04-27T18:13:59.406Z,8.15
2023-04-27T18:16:26.476Z,8.18
2023-04-27T18:18:53.327Z,8.18
2023-04-27T18:21:20.188Z,8.12
2023-04-27T18:23:47.158Z,8.06
2023-04-27T18:26:13.920Z,8.01
2023-04-27T18:28:41.130Z,7.95
2023-04-27T18:31:17.224Z,7.91
2023-04-27T18:33:44.454Z,8.01
2023-04-27T18:36:11.118Z,8.08
2023-04-27T18:38:37.822Z,8.05
2023-04-27T18:41:04.543Z,8.04
2023-04-27T18:43:33.783Z,8.04
2023-04-27T18:46:02.621Z,8.03
2023-04-27T18:48:29.634Z,8.01
2023-04-27T18:50:56.932Z,7.98
2023-04-27T18:53:23.734Z,8.05
2023-04-27T18:55:50.507Z,8.13
2023-04-27T18:58:17.286Z,8.10
2023-04-27T19:00:43.998Z,8.07
2023-04-27T19:03:10.902Z,8.04
2023-04-27T19:05:42.333Z,7.99
2023-04-27T19:08:10.620Z,7.97
2023-04-27T19:10:40.858Z,8.05
2023-04-27T19:13:08.035Z,8.08
2023-04-27T19:15:34.788Z,8.03
2023-04-27T19:18:07.191Z,7.96
2023-04-27T19:20:38.335Z,7.89
2023-04-27T19:23:05.343Z,7.83
2023-04-27T19:25:32.291Z,7.82
2023-04-27T19:27:59.131Z,7.90
2023-04-27T19:30:25.917Z,7.98
2023-04-27T19:32:53.186Z,7.95
2023-04-27T19:35:23.466Z,7.92
2023-04-27T19:37:50.859Z,7.90
2023-04-27T19:40:17.671Z,7.91
2023-04-27T19:42:45.024Z,7.91
2023-04-27T19:45:11.990Z,8.00
2023-04-27T19:47:39.227Z,8.05
2023-04-27T19:50:06.728Z,8.01
2023-04-27T19:52:34.249Z,7.96
2023-04-27T19:55:01.367Z,7.90
2023-04-27T19:57:28.795Z,7.83
2023-04-27T19:59:56.369Z,7.79
2023-04-27T20:02:23.198Z,7.85
2023-04-27T20:04:50.422Z,7.92
2023-04-27T20:07:17.352Z,7.90
2023-04-27T20:09:44.111Z,7.87
2023-04-27T20:12:28.870Z,7.89
2023-04-27T20:14:59.657Z,7.88
2023-04-27T20:17:26.774Z,7.86
2023-04-27T20:19:55.563Z,7.85
2023-04-27T20:22:22.663Z,7.93
2023-04-27T20:24:49.322Z,8.00
2023-04-27T20:27:16.124Z,7.95
2023-04-27T20:29:44.491Z,7.88
2023-04-27T20:32:11.819Z,7.84
2023-04-27T20:34:39.055Z,7.83
2023-04-27T20:37:05.656Z,7.83
2023-04-27T20:39:34.327Z,7.91
2023-04-27T20:42:00.969Z,7.97
2023-04-27T20:44:27.788Z,7.94
2023-04-27T20:46:54.635Z,7.90
2023-04-27T20:49:32.048Z,7.85
2023-04-27T20:52:01.899Z,7.78
2023-04-27T20:54:32.225Z,7.73
2023-04-27T20:57:03.184Z,7.77
2023-04-27T20:59:30.354Z,7.79
2023-04-27T21:01:57.086Z,7.75
2023-04-27T21:04:23.848Z,7.68
2023-04-27T21:06:50.623Z,7.64
2023-04-27T21:09:17.367Z,7.60
2023-04-27T21:11:44.032Z,7.56
2023-04-27T21:14:10.823Z,7.67
2023-04-27T21:16:37.890Z,7.75
2023-04-27T21:19:04.702Z,7.75
2023-04-27T21:21:31.781Z,7.70
2023-04-27T21:24:07.305Z,7.66
2023-04-27T21:26:35.203Z,7.61
2023-04-27T21:29:04.698Z,7.57
2023-04-27T21:31:32.300Z,7.63
2023-04-27T21:33:59.195Z,7.67
2023-04-27T21:36:26.009Z,7.63
2023-04-27T21:38:53.289Z,7.56
2023-04-27T21:41:20.066Z,7.53
2023-04-27T21:43:46.776Z,7.50
2023-04-27T21:46:13.635Z,7.44
2023-04-27T21:48:40.639Z,7.41
2023-04-27T21:51:07.283Z,7.48
2023-04-27T21:53:34.109Z,7.51
2023-04-27T21:56:00.840Z,7.47
2023-04-27T21:58:27.942Z,7.44
2023-04-27T22:00:54.612Z,7.42
2023-04-27T22:03:22.260Z,7.40
2023-04-27T22:05:49.683Z,7.39
2023-04-27T22:08:16.614Z,7.39
2023-04-27T22:10:43.992Z,7.47
2023-04-27T22:13:18.738Z,7.49
2023-04-27T22:15:46.503Z,7.45
2023-04-27T22:18:14.543Z,7.41
2023-04-27T22:20:41.757Z,7.39
2023-04-27T22:23:08.844Z,7.37
2023-04-27T22:25:35.913Z,7.34
2023-04-27T22:28:02.733Z,7.30
2023-04-27T22:30:29.764Z,7.35
2023-04-27T22:32:56.857Z,7.37
2023-04-27T22:35:27.283Z,7.34
2023-04-27T22:37:55.158Z,7.31
2023-04-27T22:40:21.922Z,7.26
2023-04-27T22:42:48.694Z,7.24
2023-04-27T22:45:15.796Z,7.22
2023-04-27T22:47:44.055Z,7.19
2023-04-27T22:50:11.302Z,7.19
2023-04-27T22:52:41.362Z,7.30
2023-04-27T22:55:08.604Z,7.30
2023-04-27T22:57:35.498Z,7.24
2023-04-27T23:00:04.635Z,7.19
2023-04-27T23:02:32.075Z,7.16
2023-04-27T23:04:58.876Z,7.11
2023-04-27T23:07:25.636Z,7.06
2023-04-27T23:09:54.165Z,7.02
2023-04-27T23:12:21.433Z,7.08
2023-04-27T23:14:48.235Z,7.13
2023-04-27T23:17:14.821Z,7.12
2023-04-27T23:19:41.505Z,7.10
2023-04-27T23:22:08.133Z,7.09
2023-04-27T23:24:35.200Z,7.06
2023-04-27T23:27:01.790Z,7.02
2023-04-27T23:29:30.024Z,7.01
2023-04-27T23:32:03.927Z,7.00
2023-04-27T23:34:32.250Z,7.10
2023-04-27T23:36:58.981Z,7.14
2023-04-27T23:39:27.356Z,7.10
2023-04-27T23:41:54.158Z,7.07
2023-04-27T23:44:21.569Z,7.04
2023-04-27T23:46:48.156Z,7.01
2023-04-27T23:49:15.040Z,6.98
2023-04-27T23:51:41.713Z,6.94
2023-04-27T23:54:08.394Z,6.90
2023-04-27T23:56:36.015Z,6.86
2023-04-27T23:59:02.906Z,6.85
